createdAt,value
2018-08-28T00:00:03.390Z,100866.79
2018-08-28T00:00:42.025Z,100865.75
2018-08-28T00:01:26.436Z,100865.75
2018-08-28T00:02:04.933Z,100870.37
2018-08-28T00:02:43.239Z,100869.84
2018-08-28T00:03:21.433Z,100870.64
2018-08-28T00:03:59.474Z,100872.00
2018-08-28T00:04:37.433Z,100870.94
2018-08-28T00:05:15.555Z,100876.88
2018-08-28T00:05:53.509Z,100878.48
2018-08-28T00:06:32.211Z,100880.09
2018-08-28T00:07:10.136Z,100882.50
2018-08-28T00:07:48.008Z,100879.00
2018-08-28T00:08:25.929Z,100888.42
2018-08-28T00:09:03.906Z,100883.03
2018-08-28T00:09:42.104Z,100885.98
2018-08-28T00:10:19.976Z,100887.33
2018-08-28T00:10:57.815Z,100886.24
2018-08-28T00:11:35.650Z,100895.69
2018-08-28T00:12:13.483Z,100891.09
2018-08-28T00:12:51.745Z,100895.95
2018-08-28T00:13:29.704Z,100888.37
2018-08-28T00:14:07.643Z,100891.33
2018-08-28T00:14:46.090Z,100895.13
2018-08-28T00:15:24.053Z,100889.70
2018-08-28T00:16:01.993Z,100896.97
2018-08-28T00:16:39.964Z,100898.83
2018-08-28T00:17:18.065Z,100897.74
2018-08-28T00:17:56.043Z,100900.95
2018-08-28T00:18:33.979Z,100903.91
2018-08-28T00:19:11.998Z,100901.19
2018-08-28T00:19:49.848Z,100902.25
2018-08-28T00:20:27.936Z,100905.21
2018-08-28T00:21:05.955Z,100905.47
2018-08-28T00:21:43.951Z,100908.22
2018-08-28T00:22:21.858Z,100910.61
2018-08-28T00:22:59.803Z,100910.61
2018-08-28T00:23:37.753Z,100911.44
2018-08-28T00:24:16.600Z,100911.70
2018-08-28T00:24:54.509Z,100917.66
2018-08-28T00:25:32.370Z,100914.39
2018-08-28T00:26:10.292Z,100920.59
2018-08-28T00:26:48.309Z,100915.75
2018-08-28T00:27:26.344Z,100917.36
2018-08-28T00:28:04.408Z,100914.92
2018-08-28T00:28:42.307Z,100917.33
2018-08-28T00:29:20.246Z,100918.13
2018-08-28T00:29:58.206Z,100925.94
2018-08-28T00:30:36.070Z,100922.16
2018-08-28T00:31:14.002Z,100919.72
2018-08-28T00:31:52.034Z,100912.73
2018-08-28T00:32:29.964Z,100926.20
2018-08-28T00:33:07.782Z,100924.03
2018-08-28T00:33:45.803Z,100924.55
2018-08-28T00:34:23.724Z,100922.11
2018-08-28T00:35:01.864Z,100924.26
2018-08-28T00:35:40.360Z,100928.02
2018-08-28T00:36:18.421Z,100923.14
2018-08-28T00:36:56.336Z,100919.92
2018-08-28T00:37:34.279Z,100925.78
2018-08-28T00:38:12.254Z,100923.09
2018-08-28T00:38:50.246Z,100930.03
2018-08-28T00:39:28.189Z,100929.78
2018-08-28T00:40:06.155Z,100930.81
2018-08-28T00:40:44.051Z,100929.98
2018-08-28T00:41:22.053Z,100935.06
2018-08-28T00:42:00.018Z,100929.34
2018-08-28T00:42:37.951Z,100928.51
2018-08-28T00:43:15.849Z,100931.46
2018-08-28T00:43:53.918Z,100936.00
2018-08-28T00:44:31.838Z,100929.47
2018-08-28T00:45:09.891Z,100929.73
2018-08-28T00:45:47.836Z,100933.17
2018-08-28T00:46:25.808Z,100936.89
2018-08-28T00:47:03.727Z,100943.08
2018-08-28T00:47:41.575Z,100935.77
2018-08-28T00:48:20.401Z,100943.58
2018-08-28T00:48:58.436Z,100943.30
2018-08-28T00:49:36.413Z,100942.45
2018-08-28T00:50:14.567Z,100941.62
2018-08-28T00:50:52.491Z,100939.20
2018-08-28T00:51:30.446Z,100945.89
2018-08-28T00:52:08.559Z,100945.34
2018-08-28T00:52:46.677Z,100946.69
2018-08-28T00:53:24.900Z,100943.99
2018-08-28T00:54:03.167Z,100949.62
2018-08-28T00:54:41.353Z,100946.36
2018-08-28T00:55:19.624Z,100949.83
2018-08-28T00:55:57.832Z,100957.61
2018-08-28T00:56:36.162Z,100957.03
2018-08-28T00:57:15.668Z,100960.24
2018-08-28T00:57:54.307Z,100958.31
2018-08-28T00:58:32.788Z,100966.67
2018-08-28T00:59:11.354Z,100966.93
2018-08-28T00:59:51.080Z,100964.48
2018-08-28T01:00:29.640Z,100962.03
2018-08-28T01:01:08.388Z,100965.80
2018-08-28T01:01:47.175Z,100964.99
2018-08-28T01:02:26.134Z,100957.98
2018-08-28T01:03:04.745Z,100964.14
2018-08-28T01:03:43.675Z,100954.97
2018-08-28T01:04:22.587Z,100963.52
2018-08-28T01:05:01.120Z,100962.94
2018-08-28T01:05:39.691Z,100963.45
2018-08-28T01:06:18.419Z,100968.02
2018-08-28T01:06:57.899Z,100960.41
2018-08-28T01:07:37.498Z,100961.16
2018-08-28T01:08:16.983Z,100967.88
2018-08-28T01:08:56.695Z,100964.34
2018-08-28T01:09:35.205Z,100973.75
2018-08-28T01:10:15.213Z,100968.27
2018-08-28T01:10:53.943Z,100965.47
2018-08-28T01:11:32.604Z,100969.48
2018-08-28T01:12:11.379Z,100973.95
2018-08-28T01:12:49.978Z,100973.37
2018-08-28T01:13:28.558Z,100971.42
2018-08-28T01:14:07.163Z,100973.78
2018-08-28T01:14:46.087Z,100982.10
2018-08-28T01:15:25.157Z,100980.66
2018-08-28T01:16:03.888Z,100975.45
2018-08-28T01:16:42.507Z,100977.50
2018-08-28T01:17:21.106Z,100980.41
2018-08-28T01:17:59.762Z,100986.27
2018-08-28T01:18:38.251Z,100983.72
2018-08-28T01:19:17.063Z,100984.12
2018-08-28T01:19:55.679Z,100987.02
2018-08-28T01:20:34.499Z,100978.55
2018-08-28T01:21:13.224Z,100983.36
2018-08-28T01:21:51.818Z,100982.70
2018-08-28T01:22:30.423Z,100981.80
2018-08-28T01:23:09.043Z,100985.58
2018-08-28T01:23:47.692Z,100985.97
2018-08-28T01:24:26.502Z,100985.27
2018-08-28T01:25:05.026Z,100985.08
2018-08-28T01:25:43.313Z,100993.30
2018-08-28T01:26:21.990Z,100997.20
2018-08-28T01:27:01.030Z,100995.77
2018-08-28T01:27:42.141Z,100999.72
2018-08-28T01:28:20.205Z,100999.39
2018-08-28T01:28:58.221Z,101002.05
2018-08-28T01:29:36.072Z,101005.50
2018-08-28T01:30:14.081Z,101001.38
2018-08-28T01:30:51.969Z,100999.94
2018-08-28T01:31:29.842Z,100999.51
2018-08-28T01:32:07.748Z,101004.81
2018-08-28T01:32:45.709Z,101000.69
2018-08-28T01:33:23.716Z,101003.59
2018-08-28T01:34:01.748Z,101002.20
2018-08-28T01:34:39.643Z,101006.77
2018-08-28T01:35:17.602Z,101006.39
2018-08-28T01:35:55.742Z,101004.17
2018-08-28T01:36:33.665Z,101007.08
2018-08-28T01:37:11.708Z,101006.15
2018-08-28T01:37:49.776Z,101008.25
2018-08-28T01:38:27.664Z,101010.03
2018-08-28T01:39:06.035Z,101008.30
2018-08-28T01:39:43.865Z,101016.08
2018-08-28T01:40:21.872Z,101010.58
2018-08-28T01:41:00.153Z,101015.64
2018-08-28T01:41:38.156Z,101010.91
2018-08-28T01:42:21.538Z,101017.02
2018-08-28T01:43:00.579Z,101016.08
2018-08-28T01:43:38.522Z,101011.27
2018-08-28T01:44:16.405Z,101016.39
2018-08-28T01:44:54.432Z,101006.33
2018-08-28T01:45:32.601Z,101013.61
2018-08-28T01:46:10.448Z,101011.38
2018-08-28T01:46:48.454Z,101008.59
2018-08-28T01:47:26.460Z,101013.47
2018-08-28T01:48:04.412Z,101008.80
2018-08-28T01:48:42.182Z,101009.81
2018-08-28T01:49:20.236Z,101008.39
2018-08-28T01:49:59.307Z,101013.44
2018-08-28T01:50:37.398Z,101009.61
2018-08-28T01:51:15.381Z,101011.14
2018-08-28T01:51:53.208Z,101017.38
2018-08-28T01:52:32.219Z,101017.87
2018-08-28T01:53:10.285Z,101016.95
2018-08-28T01:53:48.373Z,101018.80
2018-08-28T01:54:27.116Z,101020.41
2018-08-28T01:55:05.787Z,101025.46
2018-08-28T01:55:43.855Z,101018.52
2018-08-28T01:56:21.907Z,101024.69
2018-08-28T01:56:59.821Z,101029.02
2018-08-28T01:57:37.701Z,101026.54
2018-08-28T02:02:55.760Z,101027.14
2018-08-28T02:04:43.814Z,101018.33
2018-08-28T02:05:21.671Z,101025.39
2018-08-28T02:05:59.572Z,101025.05
2018-08-28T02:06:37.642Z,101027.64
2018-08-28T02:07:15.625Z,101021.83
2018-08-28T02:07:53.625Z,101025.18
2018-08-28T02:08:31.625Z,101024.45
2018-08-28T02:09:10.916Z,101025.66
2018-08-28T02:09:48.821Z,101022.06
2018-08-28T02:10:26.749Z,101021.87
2018-08-28T02:11:04.621Z,101023.71
2018-08-28T02:11:42.582Z,101017.20
2018-08-28T02:12:21.426Z,101016.98
2018-08-28T02:13:00.088Z,101013.55
2018-08-28T02:13:37.992Z,101018.38
2018-08-28T02:14:16.928Z,101012.78
2018-08-28T02:14:54.809Z,101016.51
2018-08-28T02:15:32.780Z,101019.70
2018-08-28T02:16:10.743Z,101015.69
2018-08-28T02:16:48.739Z,101013.06
2018-08-28T02:17:26.981Z,101010.51
2018-08-28T02:18:04.883Z,101013.66
2018-08-28T02:18:42.916Z,101010.22
2018-08-28T02:19:20.846Z,101011.31
2018-08-28T02:19:58.756Z,101013.55
2018-08-28T02:20:36.751Z,101007.14
2018-08-28T02:21:15.399Z,101012.73
2018-08-28T02:21:53.452Z,101012.58
2018-08-28T02:22:31.588Z,101017.75
2018-08-28T02:23:09.485Z,101016.07
2018-08-28T02:23:47.448Z,101015.95
2018-08-28T02:24:25.432Z,101018.62
2018-08-28T02:25:03.224Z,101013.34
2018-08-28T02:25:41.109Z,101018.54
2018-08-28T02:26:19.269Z,101014.32
2018-08-28T02:27:01.459Z,101017.36
2018-08-28T02:27:39.544Z,101020.08
2018-08-28T02:28:17.573Z,101013.11
2018-08-28T02:28:55.502Z,101019.75
2018-08-28T02:29:33.582Z,101012.83
2018-08-28T02:30:11.543Z,101014.91
2018-08-28T02:30:49.547Z,101013.62
2018-08-28T02:31:27.487Z,101012.80
2018-08-28T02:32:06.550Z,101015.62
2018-08-28T02:32:44.480Z,101014.97
2018-08-28T02:33:22.501Z,101017.81
2018-08-28T02:34:01.384Z,101015.92
2018-08-28T02:34:39.426Z,101016.69
2018-08-28T02:35:17.298Z,101007.44
2018-08-28T02:35:56.182Z,101008.80
2018-08-28T02:36:34.115Z,101004.79
2018-08-28T02:37:12.058Z,101004.13
2018-08-28T02:37:50.053Z,101008.59
2018-08-28T02:38:27.856Z,101002.63
2018-08-28T02:39:06.652Z,101005.67
2018-08-28T02:39:44.625Z,101007.27
2018-08-28T02:40:22.531Z,101016.89
2018-08-28T02:41:00.486Z,101009.64
2018-08-28T02:41:38.373Z,101009.92
2018-08-28T02:42:16.685Z,101013.52
2018-08-28T02:42:54.752Z,101015.25
2018-08-28T02:43:32.652Z,101011.89
2018-08-28T02:44:10.634Z,101009.53
2018-08-28T02:44:48.498Z,101009.93
2018-08-28T02:45:26.369Z,101006.03
2018-08-28T02:46:05.523Z,101008.89
2018-08-28T02:46:43.363Z,101013.91
2018-08-28T02:47:21.384Z,101013.17
2018-08-28T02:47:59.331Z,101008.17
2018-08-28T02:48:38.018Z,101013.77
2018-08-28T02:49:15.888Z,101010.91
2018-08-28T02:49:53.743Z,101011.71
2018-08-28T02:50:31.607Z,101014.46
2018-08-28T02:51:09.476Z,101011.06
2018-08-28T02:51:47.573Z,101009.03
2018-08-28T02:52:25.510Z,101013.64
2018-08-28T02:53:03.359Z,101011.25
2018-08-28T02:53:41.335Z,101013.30
2018-08-28T02:54:20.071Z,101014.72
2018-08-28T02:54:57.989Z,101012.34
2018-08-28T02:55:35.891Z,101014.63
2018-08-28T02:56:13.796Z,101011.90
2018-08-28T02:56:52.606Z,101008.75
2018-08-28T02:57:30.625Z,101015.03
2018-08-28T02:58:08.558Z,101017.89
2018-08-28T02:58:46.483Z,101017.21
2018-08-28T02:59:26.042Z,101014.94
2018-08-28T03:00:04.102Z,101011.87
2018-08-28T03:00:42.048Z,101014.03
2018-08-28T03:01:19.964Z,101014.75
2018-08-28T03:01:58.791Z,101010.20
2018-08-28T03:02:37.031Z,101004.28
2018-08-28T03:03:14.880Z,101003.37
2018-08-28T03:03:53.270Z,101001.59
2018-08-28T03:04:31.727Z,100999.31
2018-08-28T03:05:09.709Z,100999.88
2018-08-28T03:05:47.543Z,100995.44
2018-08-28T03:06:26.320Z,100998.63
2018-08-28T03:07:04.313Z,101003.91
2018-08-28T03:07:42.297Z,100996.62
2018-08-28T03:08:20.431Z,100999.81
2018-08-28T03:08:58.657Z,100999.13
2018-08-28T03:09:36.506Z,100996.73
2018-08-28T03:10:14.609Z,100998.90
2018-08-28T03:10:53.816Z,100994.22
2018-08-28T03:11:32.796Z,100991.83
2018-08-28T03:12:10.674Z,100995.48
2018-08-28T03:12:48.497Z,100992.63
2018-08-28T03:13:26.721Z,100990.47
2018-08-28T03:14:04.684Z,100989.21
2018-08-28T03:14:42.628Z,100982.95
2018-08-28T03:15:20.480Z,100986.36
2018-08-28T03:15:58.537Z,100992.06
2018-08-28T03:16:36.661Z,100989.22
2018-08-28T03:17:14.729Z,100991.61
2018-08-28T03:17:52.560Z,100991.38
2018-08-28T03:18:30.770Z,100989.09
2018-08-28T03:19:09.724Z,100993.88
2018-08-28T03:19:47.565Z,100986.48
2018-08-28T03:20:25.454Z,100987.50
2018-08-28T03:21:03.777Z,100993.00
2018-08-28T03:21:41.934Z,100989.91
2018-08-28T03:22:19.987Z,100986.98
2018-08-28T03:22:57.929Z,100993.02
2018-08-28T03:23:35.853Z,100987.34
2018-08-28T03:24:13.770Z,100987.33
2018-08-28T03:24:51.718Z,100984.34
2018-08-28T03:25:29.574Z,100980.70
2018-08-28T03:26:07.428Z,100984.58
2018-08-28T03:26:45.660Z,100981.24
2018-08-28T03:27:23.491Z,100985.26
2018-08-28T03:28:01.393Z,100982.17
2018-08-28T03:28:39.815Z,100981.83
2018-08-28T03:29:17.846Z,100986.38
2018-08-28T03:29:55.800Z,100984.56
2018-08-28T03:30:33.788Z,100984.56
2018-08-28T03:31:12.689Z,100988.22
2018-08-28T03:31:51.704Z,100983.42
2018-08-28T03:32:29.612Z,100983.88
2018-08-28T03:33:07.749Z,100988.88
2018-08-28T03:33:45.667Z,100987.06
2018-08-28T03:34:23.567Z,100985.36
2018-08-28T03:35:01.499Z,100988.69
2018-08-28T03:35:39.464Z,100989.82
2018-08-28T03:36:17.537Z,100987.86
2018-08-28T03:36:55.735Z,100992.42
2018-08-28T03:37:34.700Z,100982.05
2018-08-28T03:38:12.768Z,100984.12
2018-08-28T03:38:51.022Z,100985.95
2018-08-28T03:39:29.065Z,100987.64
2018-08-28T03:40:07.046Z,100984.94
2018-08-28T03:40:45.101Z,100984.92
2018-08-28T03:41:23.119Z,100981.37
2018-08-28T03:42:02.467Z,100981.85
2018-08-28T03:42:40.455Z,100981.85
2018-08-28T03:43:18.420Z,100974.77
2018-08-28T03:43:56.364Z,100979.77
2018-08-28T03:44:39.904Z,100972.70
2018-08-28T03:45:18.976Z,100975.20
2018-08-28T03:45:57.006Z,100976.14
2018-08-28T03:46:35.027Z,100973.59
2018-08-28T03:47:12.885Z,100968.09
2018-08-28T03:47:50.759Z,100973.80
2018-08-28T03:48:28.728Z,100974.02
2018-08-28T03:49:06.623Z,100967.62
2018-08-28T03:49:44.480Z,100969.22
2018-08-28T03:50:22.688Z,100968.77
2018-08-28T03:51:00.629Z,100965.13
2018-08-28T03:51:38.475Z,100968.55
2018-08-28T03:52:16.938Z,100972.30
2018-08-28T03:52:54.952Z,100967.17
2018-08-28T03:53:32.817Z,100968.45
2018-08-28T03:54:10.974Z,100971.06
2018-08-28T03:54:48.989Z,100974.59
2018-08-28T03:55:27.181Z,100971.73
2018-08-28T03:56:05.194Z,100967.15
2018-08-28T03:56:43.152Z,100966.25
2018-08-28T03:57:21.016Z,100961.45
2018-08-28T03:57:59.173Z,100958.23
2018-08-28T03:58:37.012Z,100962.56
2018-08-28T03:59:15.228Z,100961.06
2018-08-28T03:59:53.127Z,100960.39
2018-08-28T04:00:31.276Z,100963.48
2018-08-28T04:01:09.238Z,100960.08
2018-08-28T04:01:47.322Z,100957.47
2018-08-28T04:02:25.914Z,100955.52
2018-08-28T04:03:05.233Z,100957.77
2018-08-28T04:03:43.298Z,100954.45
2018-08-28T04:04:24.287Z,100954.91
2018-08-28T04:05:05.238Z,100953.98
2018-08-28T04:05:44.142Z,100950.34
2018-08-28T04:06:22.222Z,100953.77
2018-08-28T04:07:00.128Z,100951.72
2018-08-28T04:07:38.760Z,100955.13
2018-08-28T04:08:16.631Z,100949.65
2018-08-28T04:08:54.664Z,100952.17
2018-08-28T04:09:32.697Z,100950.13
2018-08-28T04:10:10.711Z,100955.25
2018-08-28T04:10:48.664Z,100951.70
2018-08-28T04:12:37.043Z,100952.75
2018-08-28T04:13:14.810Z,100957.18
2018-08-28T04:13:52.836Z,100949.20
2018-08-28T04:14:30.870Z,100955.60
2018-08-28T04:15:08.959Z,100951.50
2018-08-28T04:15:46.805Z,100950.34
2018-08-28T04:16:24.631Z,100944.65
2018-08-28T04:17:02.669Z,100949.43
2018-08-28T04:17:50.415Z,100940.52
2018-08-28T04:18:28.234Z,100936.60
2018-08-28T04:19:09.188Z,100940.04
2018-08-28T04:19:47.159Z,100947.33
2018-08-28T04:20:25.249Z,100942.11
2018-08-28T04:21:03.420Z,100942.33
2018-08-28T04:21:42.137Z,100942.83
2018-08-28T04:22:19.993Z,100935.31
2018-08-28T04:22:57.894Z,100944.02
2018-08-28T04:23:35.792Z,100942.63
2018-08-28T04:24:14.122Z,100944.68
2018-08-28T04:24:57.547Z,100940.55
2018-08-28T04:25:35.448Z,100939.20
2018-08-28T04:26:13.303Z,100932.93
2018-08-28T04:26:51.294Z,100932.81
2018-08-28T04:27:29.263Z,100926.20
2018-08-28T04:28:07.315Z,100928.37
2018-08-28T04:28:45.197Z,100927.34
2018-08-28T04:29:23.243Z,100926.91
2018-08-28T04:30:01.174Z,100926.11
2018-08-28T04:30:39.273Z,100923.36
2018-08-28T04:31:17.278Z,100920.95
2018-08-28T04:31:55.144Z,100921.18
2018-08-28T04:32:33.197Z,100918.69
2018-08-28T04:33:11.167Z,100914.69
2018-08-28T04:33:49.239Z,100917.88
2018-08-28T04:34:27.082Z,100913.67
2018-08-28T04:35:05.181Z,100915.48
2018-08-28T04:35:43.070Z,100914.13
2018-08-28T04:36:20.979Z,100916.42
2018-08-28T04:36:58.948Z,100916.18
2018-08-28T04:37:36.824Z,100912.55
2018-08-28T04:38:14.818Z,100913.00
2018-08-28T04:38:52.648Z,100914.93
2018-08-28T04:39:30.555Z,100917.66
2018-08-28T04:40:09.034Z,100915.48
2018-08-28T04:40:46.988Z,100918.90
2018-08-28T04:41:24.932Z,100910.56
2018-08-28T04:42:02.869Z,100910.69
2018-08-28T04:42:43.680Z,100910.45
2018-08-28T04:43:21.866Z,100912.72
2018-08-28T04:43:59.797Z,100918.81
2018-08-28T04:44:37.789Z,100916.64
2018-08-28T04:45:15.629Z,100921.86
2018-08-28T04:45:53.616Z,100919.14
2018-08-28T04:46:31.606Z,100924.59
2018-08-28T04:47:09.666Z,100920.46
2018-08-28T04:47:47.632Z,100923.93
2018-08-28T04:48:25.591Z,100921.64
2018-08-28T04:49:03.571Z,100917.09
2018-08-28T04:49:41.552Z,100916.42
2018-08-28T04:50:19.415Z,100923.71
2018-08-28T04:50:57.399Z,100919.38
2018-08-28T04:51:35.470Z,100912.55
2018-08-28T04:52:13.365Z,100910.49
2018-08-28T04:52:52.019Z,100912.07
2018-08-28T04:53:30.041Z,100913.64
2018-08-28T04:54:08.710Z,100912.28
2018-08-28T04:54:46.766Z,100905.52
2018-08-28T04:55:24.797Z,100907.69
2018-08-28T04:56:02.605Z,100900.37
2018-08-28T04:56:40.609Z,100903.80
2018-08-28T04:57:18.635Z,100901.03
2018-08-28T04:57:57.213Z,100896.67
2018-08-28T04:58:36.281Z,100897.69
2018-08-28T04:59:14.271Z,100897.25
2018-08-28T04:59:52.192Z,100901.09
2018-08-28T05:00:31.210Z,100901.19
2018-08-28T05:01:09.193Z,100895.72
2018-08-28T05:01:47.146Z,100892.53
2018-08-28T05:02:25.361Z,100891.98
2018-08-28T05:03:03.298Z,100882.28
2018-08-28T05:03:41.222Z,100881.26
2018-08-28T05:04:19.171Z,100880.15
2018-08-28T05:04:57.020Z,100880.91
2018-08-28T05:05:34.917Z,100877.02
2018-08-28T05:06:12.836Z,100874.02
2018-08-28T05:06:50.741Z,100872.44
2018-08-28T05:07:28.683Z,100875.02
2018-08-28T05:08:06.717Z,100874.39
2018-08-28T05:08:44.622Z,100874.19
2018-08-28T05:09:22.595Z,100873.73
2018-08-28T05:10:00.509Z,100863.59
2018-08-28T05:10:38.480Z,100871.23
2018-08-28T05:11:16.345Z,100865.16
2018-08-28T05:11:54.513Z,100873.02
2018-08-28T05:12:32.601Z,100860.35
2018-08-28T05:13:11.615Z,100857.96
2018-08-28T05:13:49.574Z,100866.40
2018-08-28T05:14:27.553Z,100874.26
2018-08-28T05:15:05.400Z,100867.98
2018-08-28T05:15:43.328Z,100861.37
2018-08-28T05:16:21.366Z,100863.44
2018-08-28T05:16:59.353Z,100868.34
2018-08-28T05:17:37.650Z,100862.29
2018-08-28T05:18:16.747Z,100867.29
2018-08-28T05:18:54.742Z,100868.21
2018-08-28T05:19:32.711Z,100859.55
2018-08-28T05:20:10.662Z,100863.19
2018-08-28T05:20:48.690Z,100862.64
2018-08-28T05:21:26.602Z,100872.67
2018-08-28T05:22:05.273Z,100867.73
2018-08-28T05:22:43.178Z,100870.25
2018-08-28T05:23:21.116Z,100868.88
2018-08-28T05:23:58.996Z,100863.30
2018-08-28T05:24:37.045Z,100864.99
2018-08-28T05:25:15.089Z,100865.25
2018-08-28T05:25:53.025Z,100867.98
2018-08-28T05:26:30.998Z,100867.64
2018-08-28T05:27:08.982Z,100867.86
2018-08-28T05:27:47.111Z,100863.18
2018-08-28T05:28:25.284Z,100863.41
2018-08-28T05:29:03.273Z,100857.92
2018-08-28T05:29:41.321Z,100862.25
2018-08-28T05:30:19.364Z,100854.84
2018-08-28T05:30:57.422Z,100859.55
2018-08-28T05:31:35.412Z,100854.97
2018-08-28T05:32:13.238Z,100855.22
2018-08-28T05:32:51.112Z,100854.30
2018-08-28T05:33:29.062Z,100848.83
2018-08-28T05:34:07.521Z,100854.30
2018-08-28T05:34:45.795Z,100857.27
2018-08-28T05:35:23.731Z,100851.12
2018-08-28T05:36:01.636Z,100848.34
2018-08-28T05:36:40.526Z,100847.67
2018-08-28T05:37:18.541Z,100844.23
2018-08-28T05:37:56.442Z,100838.09
2018-08-28T05:38:34.446Z,100844.23
2018-08-28T05:39:12.541Z,100841.94
2018-08-28T05:39:50.641Z,100844.91
2018-08-28T05:40:29.619Z,100838.76
2018-08-28T05:41:07.664Z,100842.42
2018-08-28T05:41:45.542Z,100839.91
2018-08-28T05:42:23.407Z,100844.41
2018-08-28T05:43:01.299Z,100837.66
2018-08-28T05:43:39.209Z,100841.19
2018-08-28T05:44:17.923Z,100839.24
2018-08-28T05:44:55.834Z,100832.63
2018-08-28T05:45:33.960Z,100828.51
2018-08-28T05:46:11.873Z,100828.03
2018-08-28T05:46:49.789Z,100819.15
2018-08-28T05:47:27.688Z,100824.14
2018-08-28T05:48:05.714Z,100823.44
2018-08-28T05:48:43.669Z,100825.47
2018-08-28T05:49:21.535Z,100824.10
2018-08-28T05:49:59.481Z,100827.73
2018-08-28T05:50:37.434Z,100818.13
2018-08-28T05:51:15.330Z,100827.14
2018-08-28T05:51:53.349Z,100825.29
2018-08-28T05:52:32.317Z,100826.57
2018-08-28T05:53:10.287Z,100821.75
2018-08-28T05:53:49.108Z,100824.27
2018-08-28T05:54:27.109Z,100821.41
2018-08-28T05:55:05.241Z,100817.22
2018-08-28T05:55:43.187Z,100819.20
2018-08-28T05:56:21.167Z,100820.65
2018-08-28T05:56:59.429Z,100819.16
2018-08-28T05:57:38.238Z,100819.86
2018-08-28T05:58:17.028Z,100825.23
2018-08-28T05:58:54.911Z,100821.93
2018-08-28T05:59:32.908Z,100813.50
2018-08-28T06:00:10.818Z,100816.42
2018-08-28T06:00:48.692Z,100814.38
2018-08-28T06:01:27.779Z,100815.71
2018-08-28T06:02:05.975Z,100824.63
2018-08-28T06:02:43.855Z,100816.77
2018-08-28T06:03:22.050Z,100820.75
2018-08-28T06:04:00.592Z,100824.19
2018-08-28T06:04:38.500Z,100820.66
2018-08-28T06:05:16.332Z,100821.14
2018-08-28T06:05:54.386Z,100829.44
2018-08-28T06:06:32.467Z,100814.83
2018-08-28T06:07:11.628Z,100818.27
2018-08-28T06:07:49.827Z,100819.16
2018-08-28T06:08:27.953Z,100819.38
2018-08-28T06:09:05.950Z,100813.33
2018-08-28T06:09:43.770Z,100818.92
2018-08-28T06:10:21.690Z,100813.45
2018-08-28T06:10:59.800Z,100811.38
2018-08-28T06:11:39.691Z,100813.55
2018-08-28T06:12:17.695Z,100817.96
2018-08-28T06:12:55.902Z,100816.59
2018-08-28T06:13:34.455Z,100816.55
2018-08-28T06:14:13.358Z,100812.00
2018-08-28T06:14:52.170Z,100813.77
2018-08-28T06:15:30.217Z,100814.59
2018-08-28T06:16:08.263Z,100813.37
2018-08-28T06:16:46.409Z,100809.75
2018-08-28T06:17:24.326Z,100812.00
2018-08-28T06:18:02.184Z,100810.19
2018-08-28T06:18:40.173Z,100813.37
2018-08-28T06:19:18.069Z,100806.97
2018-08-28T06:19:55.912Z,100808.56
2018-08-28T06:20:33.908Z,100806.84
2018-08-28T06:21:11.745Z,100803.17
2018-08-28T06:21:49.895Z,100805.11
2018-08-28T06:22:28.061Z,100797.23
2018-08-28T06:23:06.041Z,100791.18
2018-08-28T06:23:44.183Z,100797.83
2018-08-28T06:24:22.884Z,100800.42
2018-08-28T06:25:00.876Z,100804.27
2018-08-28T06:25:38.868Z,100805.64
2018-08-28T06:26:16.905Z,100797.73
2018-08-28T06:26:54.726Z,100798.19
2018-08-28T06:27:33.580Z,100800.06
2018-08-28T06:28:11.470Z,100798.95
2018-08-28T06:28:49.505Z,100799.84
2018-08-28T06:29:27.965Z,100803.70
2018-08-28T06:30:06.084Z,100799.41
2018-08-28T06:30:43.890Z,100793.29
2018-08-28T06:31:22.022Z,100803.13
2018-08-28T06:31:59.838Z,100800.55
2018-08-28T06:32:37.721Z,100799.30
2018-08-28T06:33:15.569Z,100804.28
2018-08-28T06:33:53.638Z,100801.34
2018-08-28T06:34:31.633Z,100797.78
2018-08-28T06:35:10.965Z,100796.02
2018-08-28T06:35:48.811Z,100795.78
2018-08-28T06:36:26.680Z,100787.77
2018-08-28T06:37:05.550Z,100791.62
2018-08-28T06:37:43.465Z,100793.14
2018-08-28T06:38:21.518Z,100785.61
2018-08-28T06:38:59.429Z,100788.78
2018-08-28T06:39:37.335Z,100788.42
2018-08-28T06:40:15.290Z,100785.58
2018-08-28T06:40:53.316Z,100782.80
2018-08-28T06:41:31.415Z,100781.44
2018-08-28T06:42:09.470Z,100786.33
2018-08-28T06:42:47.409Z,100784.84
2018-08-28T06:43:25.444Z,100787.90
2018-08-28T06:44:03.516Z,100791.19
2018-08-28T06:44:41.423Z,100789.14
2018-08-28T06:45:19.359Z,100787.77
2018-08-28T06:45:57.325Z,100782.95
2018-08-28T06:46:35.525Z,100784.58
2018-08-28T06:47:13.395Z,100784.58
2018-08-28T06:47:51.335Z,100779.66
2018-08-28T06:48:29.203Z,100785.69
2018-08-28T06:49:07.212Z,100778.41
2018-08-28T06:49:45.321Z,100783.30
2018-08-28T06:50:23.571Z,100783.17
2018-08-28T06:51:01.574Z,100773.69
2018-08-28T06:51:39.620Z,100776.30
2018-08-28T06:52:17.516Z,100776.27
2018-08-28T06:52:55.561Z,100772.62
2018-08-28T06:53:33.476Z,100775.55
2018-08-28T06:54:11.364Z,100772.30
2018-08-28T06:54:49.246Z,100769.77
2018-08-28T06:55:30.544Z,100771.56
2018-08-28T06:56:08.648Z,100772.23
2018-08-28T06:56:46.692Z,100769.64
2018-08-28T06:57:24.633Z,100768.25
2018-08-28T06:58:02.507Z,100768.81
2018-08-28T06:58:40.471Z,100769.37
2018-08-28T06:59:20.351Z,100772.66
2018-08-28T06:59:58.508Z,100768.91
2018-08-28T07:00:36.279Z,100763.45
2018-08-28T07:01:14.261Z,100765.05
2018-08-28T07:01:52.215Z,100765.05
2018-08-28T07:02:30.104Z,100758.47
2018-08-28T07:03:09.146Z,100757.34
2018-08-28T07:03:47.096Z,100758.38
2018-08-28T07:04:25.015Z,100757.81
2018-08-28T07:05:03.468Z,100748.84
2018-08-28T07:05:41.568Z,100752.03
2018-08-28T07:06:19.369Z,100755.78
2018-08-28T07:06:57.361Z,100752.50
2018-08-28T07:07:35.353Z,100745.61
2018-08-28T07:08:13.248Z,100747.20
2018-08-28T07:08:51.180Z,100748.86
2018-08-28T07:09:29.070Z,100748.89
2018-08-28T07:10:07.209Z,100750.02
2018-08-28T07:10:45.088Z,100749.25
2018-08-28T07:11:23.132Z,100752.42
2018-08-28T07:12:01.011Z,100751.75
2018-08-28T07:12:38.928Z,100746.42
2018-08-28T07:13:17.532Z,100748.83
2018-08-28T07:13:55.645Z,100748.08
2018-08-28T07:14:33.993Z,100741.28
2018-08-28T07:15:11.953Z,100749.66
2018-08-28T07:15:49.880Z,100747.09
2018-08-28T07:16:27.832Z,100748.91
2018-08-28T07:17:05.746Z,100753.69
2018-08-28T07:17:43.670Z,100743.70
2018-08-28T07:18:21.886Z,100750.11
2018-08-28T07:19:00.104Z,100750.31
2018-08-28T07:19:38.124Z,100749.65
2018-08-28T07:20:17.025Z,100750.19
2018-08-28T07:20:54.903Z,100754.31
2018-08-28T07:21:32.965Z,100749.59
2018-08-28T07:22:11.022Z,100740.92
2018-08-28T07:22:49.049Z,100741.34